Tubarao Do Mar — CSYX3 — position and weather

sailwx.info

Track history (hours):
 
Tides and Currents Weather Stations Pressure Air Temp Water Temp Dewpoint Dewpoint Depression Visibility Wind Speed Wind Dir Waves Ship Positions

Tubarao Do Mar

Last reported at 2018-Feb-18 21:40 UTC. Time now 2018-Feb-21 11:02 UTC.
Position N 37°46' W 008°58'.

Length 16 m.

Type: Passenger vessel. MMSI: 263673884.

Date/timePositionNaut miles runAvg speedWind from/ knotsBaromVisibWave heightAir tempDewpointWater temp
2018-Feb-18 21:40N 37°46' W 008°58'2 9.9
2018-Feb-18 21:30N 37°48' W 008°57'510.0
2018-Feb-18 21:00N 37°53' W 008°57'5 9.0
2018-Feb-18 20:30N 37°57' W 008°59'5 9.5
2018-Feb-18 20:00N 38°02' W 009°01'5 9.6
2018-Feb-18 19:30N 38°06' W 009°04'5 9.4
2018-Feb-18 19:00N 38°10' W 009°06'13 9.4
2018-Feb-18 17:35N 38°23' W 009°13'1 9.7
2018-Feb-18 17:29N 38°23' W 009°13'5 9.7
2018-Feb-18 16:56N 38°29' W 009°15'4 9.5
2018-Feb-18 16:30N 38°33' W 009°16'5 9.4
2018-Feb-18 15:59N 38°37' W 009°18'4 7.6
2018-Feb-18 15:30N 38°41' W 009°17'4 8.2
2018-Feb-18 14:58N 38°42' W 009°11'0 0.3
2018-Feb-18 13:28N 38°42' W 009°11'0 0.0
2018-Feb-18 12:58N 38°42' W 009°11'0 0.0
2018-Feb-18 12:22N 38°42' W 009°11'0 0.0
2018-Feb-18 11:52N 38°42' W 009°11'0 0.0
2018-Feb-18 10:58N 38°42' W 009°11'0 0.0
2018-Feb-18 09:22N 38°42' W 009°11'0 0.0
2018-Feb-18 08:49N 38°42' W 009°11'0 0.0
2018-Feb-18 08:28N 38°42' W 009°11'0 0.0
2018-Feb-18 07:10N 38°42' W 009°11'0 0.0
2018-Feb-18 06:58N 38°42' W 009°11'0 0.0
2018-Feb-18 06:10N 38°42' W 009°11'0 0.0
2018-Feb-18 05:52N 38°42' W 009°11'0 0.0
2018-Feb-18 05:28N 38°42' W 009°11'0 0.0
2018-Feb-18 04:58N 38°42' W 009°11'0 0.0
2018-Feb-18 04:28N 38°42' W 009°11'0 0.0
2018-Feb-18 03:46N 38°42' W 009°11'0 0.0
2018-Feb-18 03:22N 38°42' W 009°11'0 0.0
2018-Feb-18 01:52N 38°42' W 009°11'0 0.0
2018-Feb-18 01:22N 38°42' W 009°11'0 0.0
2018-Feb-17 22:58N 38°42' W 009°11'0 0.0
2018-Feb-17 21:46N 38°42' W 009°11'0 0.0
2018-Feb-17 21:28N 38°42' W 009°11'0 0.0
2018-Feb-17 20:04N 38°42' W 009°11'0 0.0
2018-Feb-17 19:58N 38°42' W 009°11'0 0.0
2018-Feb-17 19:16N 38°42' W 009°11'0 0.0
2018-Feb-17 18:52N 38°42' W 009°11'0 0.0
2018-Feb-17 17:34N 38°42' W 009°11'0 0.0
2018-Feb-17 17:10N 38°42' W 009°11'0 0.0
2018-Feb-17 16:58N 38°42' W 009°11'0 0.0
2018-Feb-17 16:28N 38°42' W 009°11'0 0.0
2018-Feb-17 15:04N 38°42' W 009°11'0 0.0
2018-Feb-17 14:52N 38°42' W 009°11'0 0.0
2018-Feb-17 14:28N 38°42' W 009°11'0 0.0
2018-Feb-17 13:52N 38°42' W 009°11'0 0.0
2018-Feb-17 13:28N 38°42' W 009°11'0 0.0
2018-Feb-17 12:58N 38°42' W 009°11'0 0.0
2018-Feb-17 12:28N 38°42' W 009°11'0 0.0
2018-Feb-17 11:58N 38°42' W 009°11'0 0.0
2018-Feb-17 11:28N 38°42' W 009°11'0 0.0
2018-Feb-17 10:58N 38°42' W 009°11'0 0.0
2018-Feb-17 07:58N 38°42' W 009°11'0 0.0
2018-Feb-17 07:16N 38°42' W 009°11'0 0.0
2018-Feb-17 05:31N 38°42' W 009°11'0 0.0
2018-Feb-17 03:58N 38°42' W 009°11'0 0.0
2018-Feb-17 03:28N 38°42' W 009°11'0 0.0
2018-Feb-17 02:58N 38°42' W 009°11'0 0.0
2018-Feb-17 02:22N 38°42' W 009°11'0 0.0
2018-Feb-17 01:04N 38°42' W 009°11'0 0.0
2018-Feb-17 00:58N 38°42' W 009°11'0 0.0
2018-Feb-16 20:07N 38°42' W 009°11'0 0.0
2018-Feb-16 19:52N 38°42' W 009°11'0 0.0
2018-Feb-16 14:58N 38°42' W 009°11'2 1.9
2018-Feb-16 14:10N 38°41' W 009°12'0 0.0
2018-Feb-16 13:55N 38°41' W 009°12'2 0.1
2018-Feb-15 10:53N 38°42' W 009°11'0 0.0
2018-Feb-14 17:05N 38°42' W 009°11'0 0.0
2018-Feb-14 16:35N 38°42' W 009°11'0 0.0
2018-Feb-14 13:29N 38°42' W 009°11'0 0.0
2018-Feb-14 12:35N 38°42' W 009°11'0 0.0
2018-Feb-14 12:25N 38°42' W 009°11'0 0.0
2018-Feb-14 10:49N 38°42' W 009°11'0 0.0
2018-Feb-14 10:19N 38°42' W 009°11'0 0.0
2018-Feb-14 09:34N 38°42' W 009°11'0 0.0
2018-Feb-14 06:04N 38°42' W 009°11'0 0.0
2018-Feb-14 05:52N 38°42' W 009°11'0 0.0
2018-Feb-14 05:28N 38°42' W 009°11'0 0.0
2018-Feb-14 04:58N 38°42' W 009°11'0 0.0
2018-Feb-14 04:07N 38°42' W 009°11'0 0.0
2018-Feb-14 03:52N 38°42' W 009°11'0 0.0
2018-Feb-14 03:04N 38°42' W 009°11'0 0.0
2018-Feb-14 02:40N 38°42' W 009°11'0 0.0
2018-Feb-14 02:28N 38°42' W 009°11'0 0.0
2018-Feb-14 01:13N 38°42' W 009°11'0 0.0
2018-Feb-14 00:52N 38°42' W 009°11'0 0.0
2018-Feb-14 00:16N 38°42' W 009°11'0 0.0
2018-Feb-13 23:49N 38°42' W 009°11'0 0.0
2018-Feb-13 23:16N 38°42' W 009°11'0 0.0
2018-Feb-13 08:34N 38°42' W 009°11'0 0.0
2018-Feb-13 08:10N 38°42' W 009°11'0 0.0
2018-Feb-13 07:46N 38°42' W 009°11'0 0.0
2018-Feb-13 06:10N 38°42' W 009°11'0 0.0
2018-Feb-13 05:04N 38°42' W 009°11'0 0.0
2018-Feb-13 04:34N 38°42' W 009°11'0 0.0
2018-Feb-13 04:10N 38°42' W 009°11'0 0.0
2018-Feb-13 03:49N 38°42' W 009°11'0 0.0
2018-Feb-13 03:28N 38°42' W 009°11'0 0.0
2018-Feb-13 01:37N 38°42' W 009°11'0 0.0
2018-Feb-13 01:28N 38°42' W 009°11'0 0.0
2018-Feb-13 00:28N 38°42' W 009°11'0 0.0
2018-Feb-12 23:34N 38°42' W 009°11'0 0.0
2018-Feb-12 20:53N 38°42' W 009°11'0 0.0
2018-Feb-12 20:08N 38°42' W 009°11'0 0.0
2018-Feb-12 15:14N 38°42' W 009°11'0 0.0
2018-Feb-12 14:53N 38°42' W 009°11'0 0.0
2018-Feb-12 13:05N 38°42' W 009°11'0 0.0
2018-Feb-12 12:56N 38°42' W 009°11'0 0.0
2018-Feb-12 11:02N 38°42' W 009°11'0 0.0
2018-Feb-12 10:53N 38°42' W 009°11'0 0.0
2018-Feb-12 09:08N 38°42' W 009°11'0 0.0
2018-Feb-12 08:38N 38°42' W 009°11'0 0.0
2018-Feb-12 08:02N 38°42' W 009°11'0 0.0
2018-Feb-12 07:50N 38°42' W 009°11'0 0.0
2018-Feb-12 07:23N 38°42' W 009°11'0 0.0
2018-Feb-12 06:02N 38°42' W 009°11'0 0.0
2018-Feb-12 05:53N 38°42' W 009°11'0 0.0
2018-Feb-12 05:14N 38°42' W 009°11'0 0.0
2018-Feb-12 04:53N 38°42' W 009°11'0 0.0
2018-Feb-12 04:08N 38°42' W 009°11'0 0.0
2018-Feb-12 03:53N 38°42' W 009°11'0 0.0
2018-Feb-12 03:26N 38°42' W 009°11'0 0.0
2018-Feb-12 02:56N 38°42' W 009°11'0 0.0
2018-Feb-12 02:26N 38°42' W 009°11'0 0.0
2018-Feb-12 01:56N 38°42' W 009°11'0 0.0
2018-Feb-12 01:14N 38°42' W 009°11'0 0.0
2018-Feb-12 00:50N 38°42' W 009°11'0 0.0
2018-Feb-12 00:26N 38°42' W 009°11'0 0.0
2018-Feb-11 23:56N 38°42' W 009°11'0 0.0
2018-Feb-11 23:26N 38°42' W 009°11'0 0.0
2018-Feb-11 22:53N 38°42' W 009°11'0 0.0
2018-Feb-11 21:53N 38°42' W 009°11'0 0.0
2018-Feb-11 21:02N 38°42' W 009°11'0 0.0
2018-Feb-11 20:56N 38°42' W 009°11'0 0.0
2018-Feb-11 19:53N 38°42' W 009°11'0 0.0
2018-Feb-11 17:38N 38°42' W 009°11'0 0.0
2018-Feb-11 14:38N 38°42' W 009°11'0 0.0
2018-Feb-11 14:23N 38°42' W 009°11'0 0.0
2018-Feb-11 13:56N 38°42' W 009°11'0 0.0
2018-Feb-11 13:29N 38°42' W 009°11'0 0.0
2018-Feb-11 12:20N 38°42' W 009°11'0 0.0
2018-Feb-11 11:38N 38°42' W 009°11'0 0.0
2018-Feb-11 11:26N 38°42' W 009°11'0 0.0
2018-Feb-11 10:56N 38°42' W 009°11'0 0.0
2018-Feb-11 10:26N 38°42' W 009°11'0 0.0
2018-Feb-11 09:56N 38°42' W 009°11'0 0.0
2018-Feb-11 09:02N 38°42' W 009°11'0 0.0
2018-Feb-11 08:53N 38°42' W 009°11'0 0.0
2018-Feb-11 04:32N 38°42' W 009°11'0 0.0
2018-Feb-11 04:14N 38°42' W 009°11'0 0.0
2018-Feb-11 03:05N 38°42' W 009°11'0 0.0
2018-Feb-11 02:38N 38°42' W 009°11'0 0.0
2018-Feb-11 01:26N 38°42' W 009°11'0 0.0
2018-Feb-10 23:44N 38°42' W 009°11'0 0.0
2018-Feb-10 23:17N 38°42' W 009°11'0 0.0
2018-Feb-10 21:23N 38°42' W 009°11'  
Track history (hours):
 
Tides and Currents Weather Stations Pressure Air Temp Water Temp Dewpoint Dewpoint Depression Visibility Wind Speed Wind Dir Waves Ship Positions

Tubarao Do Mar

Last reported at 2018-Feb-18 21:40 UTC. Time now 2018-Feb-21 11:02 UTC.
Position N 37°46' W 008°58'.

Length 16 m.

Type: Passenger vessel. MMSI: 263673884.

Date/timePositionNaut miles runAvg speedWind from/ knotsBaromVisibWave heightAir tempDewpointWater temp
2018-Feb-18 21:40N 37°46' W 008°58'2 9.9
2018-Feb-18 21:30N 37°48' W 008°57'510.0
2018-Feb-18 21:00N 37°53' W 008°57'5 9.0
2018-Feb-18 20:30N 37°57' W 008°59'5 9.5
2018-Feb-18 20:00N 38°02' W 009°01'5 9.6
2018-Feb-18 19:30N 38°06' W 009°04'5 9.4
2018-Feb-18 19:00N 38°10' W 009°06'13 9.4
2018-Feb-18 17:35N 38°23' W 009°13'1 9.7
2018-Feb-18 17:29N 38°23' W 009°13'5 9.7
2018-Feb-18 16:56N 38°29' W 009°15'4 9.5
2018-Feb-18 16:30N 38°33' W 009°16'5 9.4
2018-Feb-18 15:59N 38°37' W 009°18'4 7.6
2018-Feb-18 15:30N 38°41' W 009°17'4 8.2
2018-Feb-18 14:58N 38°42' W 009°11'0 0.3
2018-Feb-18 13:28N 38°42' W 009°11'0 0.0
2018-Feb-18 12:58N 38°42' W 009°11'0 0.0
2018-Feb-18 12:22N 38°42' W 009°11'0 0.0
2018-Feb-18 11:52N 38°42' W 009°11'0 0.0
2018-Feb-18 10:58N 38°42' W 009°11'0 0.0
2018-Feb-18 09:22N 38°42' W 009°11'0 0.0
2018-Feb-18 08:49N 38°42' W 009°11'0 0.0
2018-Feb-18 08:28N 38°42' W 009°11'0 0.0
2018-Feb-18 07:10N 38°42' W 009°11'0 0.0
2018-Feb-18 06:58N 38°42' W 009°11'0 0.0
2018-Feb-18 06:10N 38°42' W 009°11'0 0.0
2018-Feb-18 05:52N 38°42' W 009°11'0 0.0
2018-Feb-18 05:28N 38°42' W 009°11'0 0.0
2018-Feb-18 04:58N 38°42' W 009°11'0 0.0
2018-Feb-18 04:28N 38°42' W 009°11'0 0.0
2018-Feb-18 03:46N 38°42' W 009°11'0 0.0
2018-Feb-18 03:22N 38°42' W 009°11'0 0.0
2018-Feb-18 01:52N 38°42' W 009°11'0 0.0
2018-Feb-18 01:22N 38°42' W 009°11'0 0.0
2018-Feb-17 22:58N 38°42' W 009°11'0 0.0
2018-Feb-17 21:46N 38°42' W 009°11'0 0.0
2018-Feb-17 21:28N 38°42' W 009°11'0 0.0
2018-Feb-17 20:04N 38°42' W 009°11'0 0.0
2018-Feb-17 19:58N 38°42' W 009°11'0 0.0
2018-Feb-17 19:16N 38°42' W 009°11'0 0.0
2018-Feb-17 18:52N 38°42' W 009°11'0 0.0
2018-Feb-17 17:34N 38°42' W 009°11'0 0.0
2018-Feb-17 17:10N 38°42' W 009°11'0 0.0
2018-Feb-17 16:58N 38°42' W 009°11'0 0.0
2018-Feb-17 16:28N 38°42' W 009°11'0 0.0
2018-Feb-17 15:04N 38°42' W 009°11'0 0.0
2018-Feb-17 14:52N 38°42' W 009°11'0 0.0
2018-Feb-17 14:28N 38°42' W 009°11'0 0.0
2018-Feb-17 13:52N 38°42' W 009°11'0 0.0
2018-Feb-17 13:28N 38°42' W 009°11'0 0.0
2018-Feb-17 12:58N 38°42' W 009°11'0 0.0
2018-Feb-17 12:28N 38°42' W 009°11'0 0.0
2018-Feb-17 11:58N 38°42' W 009°11'0 0.0
2018-Feb-17 11:28N 38°42' W 009°11'0 0.0
2018-Feb-17 10:58N 38°42' W 009°11'0 0.0
2018-Feb-17 07:58N 38°42' W 009°11'0 0.0
2018-Feb-17 07:16N 38°42' W 009°11'0 0.0
2018-Feb-17 05:31N 38°42' W 009°11'0 0.0
2018-Feb-17 03:58N 38°42' W 009°11'0 0.0
2018-Feb-17 03:28N 38°42' W 009°11'0 0.0
2018-Feb-17 02:58N 38°42' W 009°11'0 0.0
2018-Feb-17 02:22N 38°42' W 009°11'0 0.0
2018-Feb-17 01:04N 38°42' W 009°11'0 0.0
2018-Feb-17 00:58N 38°42' W 009°11'0 0.0
2018-Feb-16 20:07N 38°42' W 009°11'0 0.0
2018-Feb-16 19:52N 38°42' W 009°11'0 0.0
2018-Feb-16 14:58N 38°42' W 009°11'2 1.9
2018-Feb-16 14:10N 38°41' W 009°12'0 0.0
2018-Feb-16 13:55N 38°41' W 009°12'2 0.1
2018-Feb-15 10:53N 38°42' W 009°11'0 0.0
2018-Feb-14 17:05N 38°42' W 009°11'0 0.0
2018-Feb-14 16:35N 38°42' W 009°11'0 0.0
2018-Feb-14 13:29N 38°42' W 009°11'0 0.0
2018-Feb-14 12:35N 38°42' W 009°11'0 0.0
2018-Feb-14 12:25N 38°42' W 009°11'0 0.0
2018-Feb-14 10:49N 38°42' W 009°11'0 0.0
2018-Feb-14 10:19N 38°42' W 009°11'0 0.0
2018-Feb-14 09:34N 38°42' W 009°11'0 0.0
2018-Feb-14 06:04N 38°42' W 009°11'0 0.0
2018-Feb-14 05:52N 38°42' W 009°11'0 0.0
2018-Feb-14 05:28N 38°42' W 009°11'0 0.0
2018-Feb-14 04:58N 38°42' W 009°11'0 0.0
2018-Feb-14 04:07N 38°42' W 009°11'0 0.0
2018-Feb-14 03:52N 38°42' W 009°11'0 0.0
2018-Feb-14 03:04N 38°42' W 009°11'0 0.0
2018-Feb-14 02:40N 38°42' W 009°11'0 0.0
2018-Feb-14 02:28N 38°42' W 009°11'0 0.0
2018-Feb-14 01:13N 38°42' W 009°11'0 0.0
2018-Feb-14 00:52N 38°42' W 009°11'0 0.0
2018-Feb-14 00:16N 38°42' W 009°11'0 0.0
2018-Feb-13 23:49N 38°42' W 009°11'0 0.0
2018-Feb-13 23:16N 38°42' W 009°11'0 0.0
2018-Feb-13 08:34N 38°42' W 009°11'0 0.0
2018-Feb-13 08:10N 38°42' W 009°11'0 0.0
2018-Feb-13 07:46N 38°42' W 009°11'0 0.0
2018-Feb-13 06:10N 38°42' W 009°11'0 0.0
2018-Feb-13 05:04N 38°42' W 009°11'0 0.0
2018-Feb-13 04:34N 38°42' W 009°11'0 0.0
2018-Feb-13 04:10N 38°42' W 009°11'0 0.0
2018-Feb-13 03:49N 38°42' W 009°11'0 0.0
2018-Feb-13 03:28N 38°42' W 009°11'0 0.0
2018-Feb-13 01:37N 38°42' W 009°11'0 0.0
2018-Feb-13 01:28N 38°42' W 009°11'0 0.0
2018-Feb-13 00:28N 38°42' W 009°11'0 0.0
2018-Feb-12 23:34N 38°42' W 009°11'0 0.0
2018-Feb-12 20:53N 38°42' W 009°11'0 0.0
2018-Feb-12 20:08N 38°42' W 009°11'0 0.0
2018-Feb-12 15:14N 38°42' W 009°11'0 0.0
2018-Feb-12 14:53N 38°42' W 009°11'0 0.0
2018-Feb-12 13:05N 38°42' W 009°11'0 0.0
2018-Feb-12 12:56N 38°42' W 009°11'0 0.0
2018-Feb-12 11:02N 38°42' W 009°11'0 0.0
2018-Feb-12 10:53N 38°42' W 009°11'0 0.0
2018-Feb-12 09:08N 38°42' W 009°11'0 0.0
2018-Feb-12 08:38N 38°42' W 009°11'0 0.0
2018-Feb-12 08:02N 38°42' W 009°11'0 0.0
2018-Feb-12 07:50N 38°42' W 009°11'0 0.0
2018-Feb-12 07:23N 38°42' W 009°11'0 0.0
2018-Feb-12 06:02N 38°42' W 009°11'0 0.0
2018-Feb-12 05:53N 38°42' W 009°11'0 0.0
2018-Feb-12 05:14N 38°42' W 009°11'0 0.0
2018-Feb-12 04:53N 38°42' W 009°11'0 0.0
2018-Feb-12 04:08N 38°42' W 009°11'0 0.0
2018-Feb-12 03:53N 38°42' W 009°11'0 0.0
2018-Feb-12 03:26N 38°42' W 009°11'0 0.0
2018-Feb-12 02:56N 38°42' W 009°11'0 0.0
2018-Feb-12 02:26N 38°42' W 009°11'0 0.0
2018-Feb-12 01:56N 38°42' W 009°11'0 0.0
2018-Feb-12 01:14N 38°42' W 009°11'0 0.0
2018-Feb-12 00:50N 38°42' W 009°11'0 0.0
2018-Feb-12 00:26N 38°42' W 009°11'0 0.0
2018-Feb-11 23:56N 38°42' W 009°11'0 0.0
2018-Feb-11 23:26N 38°42' W 009°11'0 0.0
2018-Feb-11 22:53N 38°42' W 009°11'0 0.0
2018-Feb-11 21:53N 38°42' W 009°11'0 0.0
2018-Feb-11 21:02N 38°42' W 009°11'0 0.0
2018-Feb-11 20:56N 38°42' W 009°11'0 0.0
2018-Feb-11 19:53N 38°42' W 009°11'0 0.0
2018-Feb-11 17:38N 38°42' W 009°11'0 0.0
2018-Feb-11 14:38N 38°42' W 009°11'0 0.0
2018-Feb-11 14:23N 38°42' W 009°11'0 0.0
2018-Feb-11 13:56N 38°42' W 009°11'0 0.0
2018-Feb-11 13:29N 38°42' W 009°11'0 0.0
2018-Feb-11 12:20N 38°42' W 009°11'0 0.0
2018-Feb-11 11:38N 38°42' W 009°11'0 0.0
2018-Feb-11 11:26N 38°42' W 009°11'0 0.0
2018-Feb-11 10:56N 38°42' W 009°11'0 0.0
2018-Feb-11 10:26N 38°42' W 009°11'0 0.0
2018-Feb-11 09:56N 38°42' W 009°11'0 0.0
2018-Feb-11 09:02N 38°42' W 009°11'0 0.0
2018-Feb-11 08:53N 38°42' W 009°11'0 0.0
2018-Feb-11 04:32N 38°42' W 009°11'0 0.0
2018-Feb-11 04:14N 38°42' W 009°11'0 0.0
2018-Feb-11 03:05N 38°42' W 009°11'0 0.0
2018-Feb-11 02:38N 38°42' W 009°11'0 0.0
2018-Feb-11 01:26N 38°42' W 009°11'0 0.0
2018-Feb-10 23:44N 38°42' W 009°11'0 0.0
2018-Feb-10 23:17N 38°42' W 009°11'0 0.0
2018-Feb-10 21:23N 38°42' W 009°11'  

Dump ship's entire track history